sensor_id;sensor_type;location;lat;lon;timestamp;pressure;altitude;pressure_sealevel;temperature;humidity
5455;BME280;2750;49.050;9.250;2023-05-09T00:00:38;99051.03;;;17.67;92.14
5455;BME280;2750;49.050;9.250;2023-05-09T00:05:41;99037.50;;;17.61;93.33
5455;BME280;2750;49.050;9.250;2023-05-09T00:10:42;99038.31;;;17.74;92.76
5455;BME280;2750;49.050;9.250;2023-05-09T00:15:44;99031.16;;;17.76;92.76
5455;BME280;2750;49.050;9.250;2023-05-09T00:20:47;99033.94;;;17.62;92.84
5455;BME280;2750;49.050;9.250;2023-05-09T00:25:48;99027.91;;;17.73;92.21
5455;BME280;2750;49.050;9.250;2023-05-09T00:30:50;99018.66;;;17.80;91.35
5455;BME280;2750;49.050;9.250;2023-05-09T00:35:52;99016.03;;;17.80;91.19
5455;BME280;2750;49.050;9.250;2023-05-09T00:40:54;99021.84;;;17.59;91.81
5455;BME280;2750;49.050;9.250;2023-05-09T00:45:55;99024.59;;;17.45;91.79
5455;BME280;2750;49.050;9.250;2023-05-09T00:50:58;99016.03;;;17.18;93.32
5455;BME280;2750;49.050;9.250;2023-05-09T00:56:01;99005.56;;;17.05;93.66
5455;BME280;2750;49.050;9.250;2023-05-09T01:01:02;99002.81;;;17.07;92.74
5455;BME280;2750;49.050;9.250;2023-05-09T01:06:10;98991.50;;;17.06;92.90
5455;BME280;2750;49.050;9.250;2023-05-09T01:11:19;98990.69;;;16.81;93.34
5455;BME280;2750;49.050;9.250;2023-05-09T01:16:27;98976.63;;;16.82;93.34
5455;BME280;2750;49.050;9.250;2023-05-09T01:21:34;98975.50;;;16.86;92.47
5455;BME280;2750;49.050;9.250;2023-05-09T01:26:43;98979.16;;;16.70;93.46
5455;BME280;2750;49.050;9.250;2023-05-09T01:31:47;98983.94;;;16.51;95.20
5455;BME280;2750;49.050;9.250;2023-05-09T01:36:49;98982.13;;;16.39;96.08
5455;BME280;2750;49.050;9.250;2023-05-09T01:41:52;98977.09;;;16.23;96.45
5455;BME280;2750;49.050;9.250;2023-05-09T01:46:57;98981.41;;;16.50;96.42
5455;BME280;2750;49.050;9.250;2023-05-09T01:52:02;98974.03;;;16.82;95.17
5455;BME280;2750;49.050;9.250;2023-05-09T01:57:05;98968.03;;;16.92;94.23
5455;BME280;2750;49.050;9.250;2023-05-09T02:02:09;98962.69;;;16.94;93.75
5455;BME280;2750;49.050;9.250;2023-05-09T02:07:11;98960.88;;;16.94;93.31
5455;BME280;2750;49.050;9.250;2023-05-09T02:12:13;98958.16;;;16.83;93.76
5455;BME280;2750;49.050;9.250;2023-05-09T02:17:16;98956.06;;;16.88;93.26
5455;BME280;2750;49.050;9.250;2023-05-09T02:22:18;98958.19;;;16.70;93.64
5455;BME280;2750;49.050;9.250;2023-05-09T02:27:20;98958.25;;;16.31;95.59
5455;BME280;2750;49.050;9.250;2023-05-09T02:32:28;98954.81;;;16.68;94.51
5455;BME280;2750;49.050;9.250;2023-05-09T02:37:32;98956.06;;;16.88;93.74
5455;BME280;2750;49.050;9.250;2023-05-09T02:42:33;98950.81;;;17.01;92.76
5455;BME280;2750;49.050;9.250;2023-05-09T02:47:37;98944.13;;;16.84;93.44
5455;BME280;2750;49.050;9.250;2023-05-09T02:52:38;98938.47;;;16.78;92.65
5455;BME280;2750;49.050;9.250;2023-05-09T02:57:40;98926.75;;;16.70;93.15
5455;BME280;2750;49.050;9.250;2023-05-09T03:02:43;98934.25;;;16.88;91.89
5455;BME280;2750;49.050;9.250;2023-05-09T03:07:44;98924.63;;;16.88;91.76
5455;BME280;2750;49.050;9.250;2023-05-09T03:12:46;98922.47;;;17.06;91.22
5455;BME280;2750;49.050;9.250;2023-05-09T03:17:49;98924.59;;;17.01;91.69
5455;BME280;2750;49.050;9.250;2023-05-09T03:22:51;98918.41;;;17.02;91.09
5455;BME280;2750;49.050;9.250;2023-05-09T03:27:52;98921.69;;;17.29;90.64
5455;BME280;2750;49.050;9.250;2023-05-09T03:32:55;98915.59;;;17.29;90.13
5455;BME280;2750;49.050;9.250;2023-05-09T03:37:56;98909.41;;;17.30;90.28
5455;BME280;2750;49.050;9.250;2023-05-09T03:42:58;98906.41;;;17.47;89.56
5455;BME280;2750;49.050;9.250;2023-05-09T03:48:00;98914.84;;;17.03;91.53
5455;BME280;2750;49.050;9.250;2023-05-09T03:53:04;98905.25;;;16.78;92.44
5455;BME280;2750;49.050;9.250;2023-05-09T03:58:05;98910.75;;;16.99;91.87
5455;BME280;2750;49.050;9.250;2023-05-09T04:03:08;98909.59;;;17.39;90.16
5455;BME280;2750;49.050;9.250;2023-05-09T04:08:10;98917.06;;;17.56;89.11
5455;BME280;2750;49.050;9.250;2023-05-09T04:13:11;98920.31;;;17.36;89.92
5455;BME280;2750;49.050;9.250;2023-05-09T04:18:14;98901.28;;;17.93;88.24
5455;BME280;2750;49.050;9.250;2023-05-09T04:23:15;98900.53;;;17.91;88.07
5455;BME280;2750;49.050;9.250;2023-05-09T04:28:17;98903.34;;;18.00;87.83
5455;BME280;2750;49.050;9.250;2023-05-09T04:33:20;98904.31;;;18.22;87.79
5455;BME280;2750;49.050;9.250;2023-05-09T04:38:23;98909.91;;;18.06;87.89
5455;BME280;2750;49.050;9.250;2023-05-09T04:43:25;98914.72;;;18.12;88.00
5455;BME280;2750;49.050;9.250;2023-05-09T04:48:28;98918.88;;;18.14;87.75
5455;BME280;2750;49.050;9.250;2023-05-09T04:53:30;98912.03;;;18.47;86.75
5455;BME280;2750;49.050;9.250;2023-05-09T04:58:31;98908.31;;;18.49;86.06
5455;BME280;2750;49.050;9.250;2023-05-09T05:03:35;98905.50;;;18.86;85.82
5455;BME280;2750;49.050;9.250;2023-05-09T05:08:36;98910.75;;;18.86;84.36
5455;BME280;2750;49.050;9.250;2023-05-09T05:13:38;98914.94;;;18.55;85.10
5455;BME280;2750;49.050;9.250;2023-05-09T05:18:40;98911.25;;;18.80;85.33
5455;BME280;2750;49.050;9.250;2023-05-09T05:23:42;98894.50;;;18.81;84.52
5455;BME280;2750;49.050;9.250;2023-05-09T05:28:43;98895.22;;;18.83;84.75
5455;BME280;2750;49.050;9.250;2023-05-09T05:33:46;98892.69;;;19.03;83.63
5455;BME280;2750;49.050;9.250;2023-05-09T05:38:48;98887.91;;;18.97;83.80
5455;BME280;2750;49.050;9.250;2023-05-09T05:43:50;98881.94;;;19.06;84.04
5455;BME280;2750;49.050;9.250;2023-05-09T05:48:53;98880.09;;;19.29;83.28
5455;BME280;2750;49.050;9.250;2023-05-09T05:53:55;98869.31;;;19.32;82.74
5455;BME280;2750;49.050;9.250;2023-05-09T05:58:57;98869.69;;;19.71;82.15
5455;BME280;2750;49.050;9.250;2023-05-09T06:04:00;98856.72;;;19.79;81.01
5455;BME280;2750;49.050;9.250;2023-05-09T06:09:01;98869.72;;;19.60;81.80
5455;BME280;2750;49.050;9.250;2023-05-09T06:14:03;98866.84;;;19.63;81.83
5455;BME280;2750;49.050;9.250;2023-05-09T06:19:05;98861.53;;;19.74;80.99
5455;BME280;2750;49.050;9.250;2023-05-09T06:24:07;98851.84;;;20.36;79.65
5455;BME280;2750;49.050;9.250;2023-05-09T06:29:08;98854.88;;;20.11;80.07
5455;BME280;2750;49.050;9.250;2023-05-09T06:34:11;98842.19;;;21.26;77.93
5455;BME280;2750;49.050;9.250;2023-05-09T06:39:13;98840.38;;;21.36;76.71
5455;BME280;2750;49.050;9.250;2023-05-09T06:44:14;98834.38;;;21.25;75.77
5455;BME280;2750;49.050;9.250;2023-05-09T06:49:17;98822.03;;;21.64;74.50
5455;BME280;2750;49.050;9.250;2023-05-09T06:54:18;98823.72;;;22.77;72.82
5455;BME280;2750;49.050;9.250;2023-05-09T06:59:20;98814.97;;;23.21;70.25
5455;BME280;2750;49.050;9.250;2023-05-09T07:04:23;98815.88;;;23.65;69.89
5455;BME280;2750;49.050;9.250;2023-05-09T07:09:24;98814.88;;;24.95;66.58
5455;BME280;2750;49.050;9.250;2023-05-09T07:14:27;98818.41;;;24.70;67.28
5455;BME280;2750;49.050;9.250;2023-05-09T07:19:30;98803.63;;;24.67;67.09
5455;BME280;2750;49.050;9.250;2023-05-09T07:24:32;98806.69;;;24.47;67.55
5455;BME280;2750;49.050;9.250;2023-05-09T07:29:33;98797.84;;;23.69;69.08
5455;BME280;2750;49.050;9.250;2023-05-09T07:34:36;98784.50;;;23.53;70.02
5455;BME280;2750;49.050;9.250;2023-05-09T07:39:37;98775.66;;;23.70;69.88
5455;BME280;2750;49.050;9.250;2023-05-09T07:44:39;98768.88;;;23.50;69.95
5455;BME280;2750;49.050;9.250;2023-05-09T07:49:42;98760.34;;;24.07;68.75
5455;BME280;2750;49.050;9.250;2023-05-09T07:54:45;98757.75;;;23.64;69.23
5455;BME280;2750;49.050;9.250;2023-05-09T07:59:47;98750.75;;;24.06;69.40
5455;BME280;2750;49.050;9.250;2023-05-09T08:04:49;98736.06;;;24.20;68.65
5455;BME280;2750;49.050;9.250;2023-05-09T08:09:51;98729.88;;;25.03;66.64
5455;BME280;2750;49.050;9.250;2023-05-09T08:14:52;98730.09;;;25.75;64.53
5455;BME280;2750;49.050;9.250;2023-05-09T08:19:55;98709.22;;;26.10;63.26
5455;BME280;2750;49.050;9.250;2023-05-09T08:24:57;98712.78;;;26.42;62.74
5455;BME280;2750;49.050;9.250;2023-05-09T08:29:58;98707.44;;;27.26;60.13
5455;BME280;2750;49.050;9.250;2023-05-09T08:35:02;98705.03;;;27.39;60.85
5455;BME280;2750;49.050;9.250;2023-05-09T08:40:04;98697.84;;;27.77;60.30
5455;BME280;2750;49.050;9.250;2023-05-09T08:45:08;98684.47;;;27.48;59.70
5455;BME280;2750;49.050;9.250;2023-05-09T08:50:11;98677.34;;;26.72;60.90
5455;BME280;2750;49.050;9.250;2023-05-09T08:55:14;98662.13;;;29.09;57.41
5455;BME280;2750;49.050;9.250;2023-05-09T09:00:16;98662.09;;;28.87;57.29
5455;BME280;2750;49.050;9.250;2023-05-09T09:05:22;98661.16;;;29.16;56.74
5455;BME280;2750;49.050;9.250;2023-05-09T09:10:26;98654.06;;;30.74;55.03
5455;BME280;2750;49.050;9.250;2023-05-09T09:15:35;98646.22;;;30.79;53.69
5455;BME280;2750;49.050;9.250;2023-05-09T09:20:44;98645.66;;;29.33;54.92
5455;BME280;2750;49.050;9.250;2023-05-09T09:25:46;98632.22;;;29.82;54.78
5455;BME280;2750;49.050;9.250;2023-05-09T09:30:48;98633.34;;;29.32;54.92
5455;BME280;2750;49.050;9.250;2023-05-09T09:35:52;98630.22;;;29.28;54.40
5455;BME280;2750;49.050;9.250;2023-05-09T09:40:54;98608.06;;;29.69;54.27
5455;BME280;2750;49.050;9.250;2023-05-09T09:45:56;98592.25;;;30.21;52.83
5455;BME280;2750;49.050;9.250;2023-05-09T09:51:03;98584.19;;;31.35;52.10
5455;BME280;2750;49.050;9.250;2023-05-09T09:56:08;98580.88;;;30.73;53.34
5455;BME280;2750;49.050;9.250;2023-05-09T10:01:11;98569.13;;;31.14;53.98
5455;BME280;2750;49.050;9.250;2023-05-09T10:06:15;98570.53;;;29.97;54.31
5455;BME280;2750;49.050;9.250;2023-05-09T10:11:16;98564.41;;;29.68;54.13
5455;BME280;2750;49.050;9.250;2023-05-09T10:16:18;98552.16;;;30.48;52.66
5455;BME280;2750;49.050;9.250;2023-05-09T10:21:21;98539.84;;;29.93;55.08
5455;BME280;2750;49.050;9.250;2023-05-09T10:26:23;98530.88;;;30.33;53.78
5455;BME280;2750;49.050;9.250;2023-05-09T10:31:30;98515.09;;;29.90;52.33
5455;BME280;2750;49.050;9.250;2023-05-09T10:36:34;98515.03;;;28.74;54.40
5455;BME280;2750;49.050;9.250;2023-05-09T10:41:35;98504.28;;;28.95;55.41
5455;BME280;2750;49.050;9.250;2023-05-09T10:46:39;98491.97;;;29.01;55.14
5455;BME280;2750;49.050;9.250;2023-05-09T10:51:42;98487.38;;;29.23;54.41
5455;BME280;2750;49.050;9.250;2023-05-09T10:56:43;98478.25;;;29.45;54.96
5455;BME280;2750;49.050;9.250;2023-05-09T11:01:45;98462.53;;;29.70;54.68
5455;BME280;2750;49.050;9.250;2023-05-09T11:06:49;98456.50;;;29.55;53.49
5455;BME280;2750;49.050;9.250;2023-05-09T11:11:52;98448.00;;;29.92;54.25
5455;BME280;2750;49.050;9.250;2023-05-09T11:16:57;98442.66;;;30.25;53.00
5455;BME280;2750;49.050;9.250;2023-05-09T11:22:02;98430.16;;;29.58;53.85
5455;BME280;2750;49.050;9.250;2023-05-09T11:27:15;98420.97;;;29.80;53.69
5455;BME280;2750;49.050;9.250;2023-05-09T11:32:17;98408.88;;;30.37;53.82
5455;BME280;2750;49.050;9.250;2023-05-09T11:37:20;98396.53;;;30.16;53.61
5455;BME280;2750;49.050;9.250;2023-05-09T11:42:23;98389.94;;;29.93;53.25
5455;BME280;2750;49.050;9.250;2023-05-09T11:47:25;98383.53;;;30.66;52.42
5455;BME280;2750;49.050;9.250;2023-05-09T11:52:31;98374.66;;;30.72;52.24
5455;BME280;2750;49.050;9.250;2023-05-09T11:57:32;98367.28;;;31.32;50.42
5455;BME280;2750;49.050;9.250;2023-05-09T12:02:35;98358.78;;;31.35;50.69
5455;BME280;2750;49.050;9.250;2023-05-09T12:07:39;98348.56;;;31.12;50.90
5455;BME280;2750;49.050;9.250;2023-05-09T12:12:42;98337.56;;;31.96;49.58
5455;BME280;2750;49.050;9.250;2023-05-09T12:17:44;98337.66;;;31.45;49.97
5455;BME280;2750;49.050;9.250;2023-05-09T12:22:52;98321.97;;;31.10;50.59
5455;BME280;2750;49.050;9.250;2023-05-09T12:27:55;98322.38;;;31.07;52.38
5455;BME280;2750;49.050;9.250;2023-05-09T12:32:57;98304.00;;;31.80;51.93
5455;BME280;2750;49.050;9.250;2023-05-09T12:38:00;98292.03;;;32.68;49.93
5455;BME280;2750;49.050;9.250;2023-05-09T12:43:01;98290.06;;;31.90;50.59
5455;BME280;2750;49.050;9.250;2023-05-09T12:48:03;98292.00;;;31.20;52.54
5455;BME280;2750;49.050;9.250;2023-05-09T12:53:06;98279.69;;;30.55;51.21
5455;BME280;2750;49.050;9.250;2023-05-09T12:58:08;98270.78;;;31.12;53.00
5455;BME280;2750;49.050;9.250;2023-05-09T13:03:20;98264.22;;;31.95;50.73
5455;BME280;2750;49.050;9.250;2023-05-09T13:08:23;98259.72;;;31.89;50.99
5455;BME280;2750;49.050;9.250;2023-05-09T13:13:26;98240.94;;;31.64;50.19
5455;BME280;2750;49.050;9.250;2023-05-09T13:18:27;98219.97;;;31.98;51.24
5455;BME280;2750;49.050;9.250;2023-05-09T13:23:30;98216.25;;;31.74;52.03
5455;BME280;2750;49.050;9.250;2023-05-09T13:28:32;98207.13;;;31.57;50.92
5455;BME280;2750;49.050;9.250;2023-05-09T13:33:33;98200.59;;;31.71;51.21
5455;BME280;2750;49.050;9.250;2023-05-09T13:38:36;98197.81;;;30.52;51.25
5455;BME280;2750;49.050;9.250;2023-05-09T13:43:39;98185.03;;;31.30;52.79
5455;BME280;2750;49.050;9.250;2023-05-09T13:48:41;98173.09;;;31.75;51.70
5455;BME280;2750;49.050;9.250;2023-05-09T13:53:45;98172.56;;;31.42;51.66
5455;BME280;2750;49.050;9.250;2023-05-09T13:58:46;98175.94;;;31.81;51.48
5455;BME280;2750;49.050;9.250;2023-05-09T14:03:48;98167.34;;;31.72;49.28
5455;BME280;2750;49.050;9.250;2023-05-09T14:08:50;98162.47;;;31.62;51.17
5455;BME280;2750;49.050;9.250;2023-05-09T14:13:52;98145.66;;;31.92;49.06
5455;BME280;2750;49.050;9.250;2023-05-09T14:18:54;98137.81;;;31.47;51.65
5455;BME280;2750;49.050;9.250;2023-05-09T14:23:56;98129.34;;;31.50;52.09
5455;BME280;2750;49.050;9.250;2023-05-09T14:28:58;98127.13;;;30.53;52.17
5455;BME280;2750;49.050;9.250;2023-05-09T14:33:59;98115.94;;;30.63;52.85
5455;BME280;2750;49.050;9.250;2023-05-09T14:39:02;98111.06;;;30.09;53.34
5455;BME280;2750;49.050;9.250;2023-05-09T14:44:05;98104.22;;;31.20;52.44
5455;BME280;2750;49.050;9.250;2023-05-09T14:49:06;98092.34;;;30.40;52.78
5455;BME280;2750;49.050;9.250;2023-05-09T14:54:09;98092.34;;;29.96;53.57
5455;BME280;2750;49.050;9.250;2023-05-09T14:59:11;98088.97;;;29.36;54.87
5455;BME280;2750;49.050;9.250;2023-05-09T15:04:12;98083.59;;;29.23;55.00
5455;BME280;2750;49.050;9.250;2023-05-09T15:09:15;98078.19;;;28.57;56.43
5455;BME280;2750;49.050;9.250;2023-05-09T15:14:18;98076.94;;;28.40;57.50
5455;BME280;2750;49.050;9.250;2023-05-09T15:19:19;98070.25;;;28.10;57.15
5455;BME280;2750;49.050;9.250;2023-05-09T15:24:23;98066.41;;;27.84;58.14
5455;BME280;2750;49.050;9.250;2023-05-09T15:29:25;98066.00;;;27.81;57.30
5455;BME280;2750;49.050;9.250;2023-05-09T15:34:26;98050.28;;;27.58;58.11
5455;BME280;2750;49.050;9.250;2023-05-09T15:39:33;98045.06;;;27.43;59.44
5455;BME280;2750;49.050;9.250;2023-05-09T15:44:35;98043.84;;;27.80;58.52
5455;BME280;2750;49.050;9.250;2023-05-09T15:49:36;98052.31;;;27.90;57.92
5455;BME280;2750;49.050;9.250;2023-05-09T15:54:40;98056.16;;;27.81;60.11
5455;BME280;2750;49.050;9.250;2023-05-09T15:59:44;98052.34;;;27.00;60.34
5455;BME280;2750;49.050;9.250;2023-05-09T16:04:45;98048.34;;;25.90;60.97
5455;BME280;2750;49.050;9.250;2023-05-09T16:09:48;98052.16;;;25.14;61.61
5455;BME280;2750;49.050;9.250;2023-05-09T16:14:50;98044.94;;;25.23;61.64
5455;BME280;2750;49.050;9.250;2023-05-09T16:19:51;98040.19;;;25.77;62.22
5455;BME280;2750;49.050;9.250;2023-05-09T16:24:54;98032.13;;;26.42;60.62
5455;BME280;2750;49.050;9.250;2023-05-09T16:29:55;98030.94;;;26.24;61.53
5455;BME280;2750;49.050;9.250;2023-05-09T16:34:57;98021.00;;;26.32;62.15
5455;BME280;2750;49.050;9.250;2023-05-09T16:40:00;98014.81;;;25.60;60.28
5455;BME280;2750;49.050;9.250;2023-05-09T16:45:02;98009.63;;;24.62;63.63
5455;BME280;2750;49.050;9.250;2023-05-09T16:50:04;98005.72;;;24.73;64.03
5455;BME280;2750;49.050;9.250;2023-05-09T16:55:07;98008.19;;;24.97;64.64
5455;BME280;2750;49.050;9.250;2023-05-09T17:00:09;97993.78;;;24.92;65.11
5455;BME280;2750;49.050;9.250;2023-05-09T17:05:11;97998.75;;;24.04;67.42
5455;BME280;2750;49.050;9.250;2023-05-09T17:10:14;97997.00;;;23.18;70.99
5455;BME280;2750;49.050;9.250;2023-05-09T17:15:16;97995.47;;;23.71;69.04
5455;BME280;2750;49.050;9.250;2023-05-09T17:20:17;97996.03;;;23.89;68.66
5455;BME280;2750;49.050;9.250;2023-05-09T17:25:20;98002.13;;;23.98;68.57
5455;BME280;2750;49.050;9.250;2023-05-09T17:30:22;98006.44;;;23.68;70.71
5455;BME280;2750;49.050;9.250;2023-05-09T17:35:23;98005.84;;;23.50;71.12
5455;BME280;2750;49.050;9.250;2023-05-09T17:40:26;98005.25;;;23.23;74.23
5455;BME280;2750;49.050;9.250;2023-05-09T17:45:28;98008.81;;;22.92;76.43
5455;BME280;2750;49.050;9.250;2023-05-09T17:50:29;98015.41;;;22.39;77.84
5455;BME280;2750;49.050;9.250;2023-05-09T17:55:33;98025.28;;;21.63;83.79
5455;BME280;2750;49.050;9.250;2023-05-09T18:00:34;98034.44;;;21.76;83.98
5455;BME280;2750;49.050;9.250;2023-05-09T18:05:36;98038.63;;;21.19;83.37
5455;BME280;2750;49.050;9.250;2023-05-09T18:10:39;98049.66;;;20.97;89.31
5455;BME280;2750;49.050;9.250;2023-05-09T18:15:41;98057.13;;;20.40;89.79
5455;BME280;2750;49.050;9.250;2023-05-09T18:20:42;98067.22;;;20.00;93.43
5455;BME280;2750;49.050;9.250;2023-05-09T18:25:46;98082.00;;;19.56;96.39
5455;BME280;2750;49.050;9.250;2023-05-09T18:30:49;98084.84;;;19.72;97.29
5455;BME280;2750;49.050;9.250;2023-05-09T18:35:51;98093.78;;;19.89;97.46
5455;BME280;2750;49.050;9.250;2023-05-09T18:40:54;98094.03;;;20.13;96.58
5455;BME280;2750;49.050;9.250;2023-05-09T18:45:55;98099.13;;;19.97;96.63
5455;BME280;2750;49.050;9.250;2023-05-09T18:50:57;98102.25;;;19.83;95.95
5455;BME280;2750;49.050;9.250;2023-05-09T18:55:59;98101.31;;;19.47;97.31
5455;BME280;2750;49.050;9.250;2023-05-09T19:01:01;98100.47;;;19.46;97.27
5455;BME280;2750;49.050;9.250;2023-05-09T19:06:02;98107.59;;;19.64;97.13
5455;BME280;2750;49.050;9.250;2023-05-09T19:11:05;98112.97;;;19.72;96.43
5455;BME280;2750;49.050;9.250;2023-05-09T19:16:07;98106.56;;;19.47;96.11
5455;BME280;2750;49.050;9.250;2023-05-09T19:21:09;98118.34;;;19.43;96.57
5455;BME280;2750;49.050;9.250;2023-05-09T19:26:13;98115.25;;;18.82;99.93
5455;BME280;2750;49.050;9.250;2023-05-09T19:31:16;98114.31;;;19.48;97.45
5455;BME280;2750;49.050;9.250;2023-05-09T19:36:19;98117.63;;;19.78;96.78
5455;BME280;2750;49.050;9.250;2023-05-09T19:41:22;98118.16;;;18.88;99.08
5455;BME280;2750;49.050;9.250;2023-05-09T19:46:23;98118.41;;;19.61;97.56
5455;BME280;2750;49.050;9.250;2023-05-09T19:51:25;98119.28;;;19.88;95.98
5455;BME280;2750;49.050;9.250;2023-05-09T19:56:28;98128.44;;;19.47;96.87
5455;BME280;2750;49.050;9.250;2023-05-09T20:01:29;98127.34;;;19.50;97.67
5455;BME280;2750;49.050;9.250;2023-05-09T20:06:30;98125.34;;;19.62;97.05
5455;BME280;2750;49.050;9.250;2023-05-09T20:11:33;98115.69;;;19.33;95.25
5455;BME280;2750;49.050;9.250;2023-05-09T20:16:35;98128.25;;;18.64;97.62
5455;BME280;2750;49.050;9.250;2023-05-09T20:21:36;98127.91;;;18.38;97.58
5455;BME280;2750;49.050;9.250;2023-05-09T20:26:39;98132.53;;;18.06;98.99
5455;BME280;2750;49.050;9.250;2023-05-09T20:31:40;98129.75;;;17.98;99.34
5455;BME280;2750;49.050;9.250;2023-05-09T20:36:42;98122.78;;;17.78;99.56
5455;BME280;2750;49.050;9.250;2023-05-09T20:41:45;98116.03;;;17.85;99.50
5455;BME280;2750;49.050;9.250;2023-05-09T20:46:47;98122.75;;;18.08;98.79
5455;BME280;2750;49.050;9.250;2023-05-09T20:51:48;98121.41;;;18.23;98.58
5455;BME280;2750;49.050;9.250;2023-05-09T20:56:51;98115.31;;;18.32;98.93
5455;BME280;2750;49.050;9.250;2023-05-09T21:01:53;98123.56;;;18.77;97.25
5455;BME280;2750;49.050;9.250;2023-05-09T21:06:55;98119.69;;;18.81;97.26
5455;BME280;2750;49.050;9.250;2023-05-09T21:11:58;98113.44;;;18.92;96.40
5455;BME280;2750;49.050;9.250;2023-05-09T21:16:59;98103.31;;;19.16;95.59
5455;BME280;2750;49.050;9.250;2023-05-09T21:22:01;98103.88;;;18.91;95.87
5455;BME280;2750;49.050;9.250;2023-05-09T21:27:04;98100.59;;;18.70;97.08
5455;BME280;2750;49.050;9.250;2023-05-09T21:32:05;98095.16;;;18.42;98.75
5455;BME280;2750;49.050;9.250;2023-05-09T21:37:07;98088.94;;;18.91;96.88
5455;BME280;2750;49.050;9.250;2023-05-09T21:42:10;98083.69;;;19.01;95.69
5455;BME280;2750;49.050;9.250;2023-05-09T21:47:11;98082.28;;;18.97;95.28
5455;BME280;2750;49.050;9.250;2023-05-09T21:52:12;98080.72;;;19.14;95.09
5455;BME280;2750;49.050;9.250;2023-05-09T21:57:16;98087.25;;;19.00;96.09
5455;BME280;2750;49.050;9.250;2023-05-09T22:02:18;98083.78;;;19.09;96.07
5455;BME280;2750;49.050;9.250;2023-05-09T22:07:20;98088.41;;;18.69;97.46
5455;BME280;2750;49.050;9.250;2023-05-09T22:12:22;98085.88;;;18.48;97.98
5455;BME280;2750;49.050;9.250;2023-05-09T22:17:24;98077.06;;;18.68;97.92
5455;BME280;2750;49.050;9.250;2023-05-09T22:22:25;98080.50;;;18.49;98.41
5455;BME280;2750;49.050;9.250;2023-05-09T22:27:28;98074.41;;;18.49;97.96
5455;BME280;2750;49.050;9.250;2023-05-09T22:32:30;98081.19;;;18.51;98.20
5455;BME280;2750;49.050;9.250;2023-05-09T22:37:31;98081.59;;;18.37;98.97
5455;BME280;2750;49.050;9.250;2023-05-09T22:42:34;98095.63;;;17.28;100.00
5455;BME280;2750;49.050;9.250;2023-05-09T22:47:36;98098.44;;;17.15;100.00
5455;BME280;2750;49.050;9.250;2023-05-09T22:52:37;98096.66;;;17.15;100.00
5455;BME280;2750;49.050;9.250;2023-05-09T22:57:40;98092.41;;;17.24;100.00
5455;BME280;2750;49.050;9.250;2023-05-09T23:02:41;98099.94;;;17.59;100.00
5455;BME280;2750;49.050;9.250;2023-05-09T23:07:43;98104.88;;;17.32;100.00
5455;BME280;2750;49.050;9.250;2023-05-09T23:12:46;98096.38;;;17.39;100.00
5455;BME280;2750;49.050;9.250;2023-05-09T23:17:47;98099.09;;;17.58;100.00
5455;BME280;2750;49.050;9.250;2023-05-09T23:22:49;98105.38;;;17.46;100.00
5455;BME280;2750;49.050;9.250;2023-05-09T23:27:51;98103.97;;;17.21;100.00
5455;BME280;2750;49.050;9.250;2023-05-09T23:32:53;98101.59;;;17.09;100.00
5455;BME280;2750;49.050;9.250;2023-05-09T23:37:55;98096.47;;;17.07;100.00
5455;BME280;2750;49.050;9.250;2023-05-09T23:42:58;98104.91;;;17.11;100.00
5455;BME280;2750;49.050;9.250;2023-05-09T23:47:59;98107.31;;;17.24;100.00
5455;BME280;2750;49.050;9.250;2023-05-09T23:53:00;98103.16;;;16.80;100.00
5455;BME280;2750;49.050;9.250;2023-05-09T23:58:05;98106.28;;;16.94;100.00
